sensor_id;sensor_type;location;lat;lon;timestamp;temperature;humidity
33715;DHT22;20043;50.998;4.754;2022-09-02T00:01:45;18.90;98.50
33715;DHT22;20043;50.998;4.754;2022-09-02T00:04:14;18.80;98.50
33715;DHT22;20043;50.998;4.754;2022-09-02T00:06:41;19.00;98.50
33715;DHT22;20043;50.998;4.754;2022-09-02T00:09:09;18.90;98.60
33715;DHT22;20043;50.998;4.754;2022-09-02T00:11:36;18.80;98.70
33715;DHT22;20043;50.998;4.754;2022-09-02T00:14:05;18.70;99.00
33715;DHT22;20043;50.998;4.754;2022-09-02T00:16:31;18.50;99.40
33715;DHT22;20043;50.998;4.754;2022-09-02T00:18:58;18.50;99.00
33715;DHT22;20043;50.998;4.754;2022-09-02T00:21:24;18.50;99.30
33715;DHT22;20043;50.998;4.754;2022-09-02T00:23:51;18.40;99.50
33715;DHT22;20043;50.998;4.754;2022-09-02T00:26:18;18.40;99.70
33715;DHT22;20043;50.998;4.754;2022-09-02T00:28:43;18.40;99.40
33715;DHT22;20043;50.998;4.754;2022-09-02T00:31:11;18.40;99.70
33715;DHT22;20043;50.998;4.754;2022-09-02T00:33:38;18.60;99.60
33715;DHT22;20043;50.998;4.754;2022-09-02T00:36:04;18.60;99.20
33715;DHT22;20043;50.998;4.754;2022-09-02T00:38:30;18.70;99.40
33715;DHT22;20043;50.998;4.754;2022-09-02T00:41:01;18.70;99.30
33715;DHT22;20043;50.998;4.754;2022-09-02T00:43:56;18.60;99.30
33715;DHT22;20043;50.998;4.754;2022-09-02T00:46:24;18.60;99.50
33715;DHT22;20043;50.998;4.754;2022-09-02T00:51:50;18.70;99.30
33715;DHT22;20043;50.998;4.754;2022-09-02T00:54:19;18.60;99.60
33715;DHT22;20043;50.998;4.754;2022-09-02T00:56:46;18.60;99.80
33715;DHT22;20043;50.998;4.754;2022-09-02T00:59:18;18.60;99.90
33715;DHT22;20043;50.998;4.754;2022-09-02T01:01:45;18.40;99.90
33715;DHT22;20043;50.998;4.754;2022-09-02T01:04:11;18.30;99.90
33715;DHT22;20043;50.998;4.754;2022-09-02T01:06:37;18.30;99.90
33715;DHT22;20043;50.998;4.754;2022-09-02T01:09:11;18.30;99.90
33715;DHT22;20043;50.998;4.754;2022-09-02T01:11:45;18.50;99.90
33715;DHT22;20043;50.998;4.754;2022-09-02T01:14:13;18.30;99.90
33715;DHT22;20043;50.998;4.754;2022-09-02T01:16:43;18.20;99.90
33715;DHT22;20043;50.998;4.754;2022-09-02T01:19:22;18.10;99.90
33715;DHT22;20043;50.998;4.754;2022-09-02T01:21:53;18.10;99.90
33715;DHT22;20043;50.998;4.754;2022-09-02T01:24:20;18.10;99.90
33715;DHT22;20043;50.998;4.754;2022-09-02T01:26:50;18.00;99.90
33715;DHT22;20043;50.998;4.754;2022-09-02T01:29:16;18.00;99.90
33715;DHT22;20043;50.998;4.754;2022-09-02T01:31:42;17.90;99.90
33715;DHT22;20043;50.998;4.754;2022-09-02T01:34:08;17.90;99.90
33715;DHT22;20043;50.998;4.754;2022-09-02T01:36:37;17.90;99.90
33715;DHT22;20043;50.998;4.754;2022-09-02T01:39:03;17.80;99.90
33715;DHT22;20043;50.998;4.754;2022-09-02T01:41:29;17.70;99.90
33715;DHT22;20043;50.998;4.754;2022-09-02T01:43:54;17.60;99.90
33715;DHT22;20043;50.998;4.754;2022-09-02T01:46:21;17.60;99.90
33715;DHT22;20043;50.998;4.754;2022-09-02T01:48:48;17.50;99.90
33715;DHT22;20043;50.998;4.754;2022-09-02T01:51:16;17.50;99.90
33715;DHT22;20043;50.998;4.754;2022-09-02T01:53:42;17.50;99.90
33715;DHT22;20043;50.998;4.754;2022-09-02T01:56:08;17.50;99.90
33715;DHT22;20043;50.998;4.754;2022-09-02T01:58:34;17.30;99.90
33715;DHT22;20043;50.998;4.754;2022-09-02T02:01:00;17.20;99.90
33715;DHT22;20043;50.998;4.754;2022-09-02T02:03:26;17.20;99.90
33715;DHT22;20043;50.998;4.754;2022-09-02T02:05:51;17.00;99.90
33715;DHT22;20043;50.998;4.754;2022-09-02T02:08:17;17.00;99.90
33715;DHT22;20043;50.998;4.754;2022-09-02T02:10:43;16.90;99.90
33715;DHT22;20043;50.998;4.754;2022-09-02T02:13:09;16.90;99.90
33715;DHT22;20043;50.998;4.754;2022-09-02T02:15:39;16.90;99.90
33715;DHT22;20043;50.998;4.754;2022-09-02T02:18:05;16.90;99.90
33715;DHT22;20043;50.998;4.754;2022-09-02T02:20:31;17.00;99.90
33715;DHT22;20043;50.998;4.754;2022-09-02T02:22:56;16.90;99.90
33715;DHT22;20043;50.998;4.754;2022-09-02T02:25:22;16.90;99.90
33715;DHT22;20043;50.998;4.754;2022-09-02T02:27:47;16.90;99.90
33715;DHT22;20043;50.998;4.754;2022-09-02T02:30:15;16.90;99.90
33715;DHT22;20043;50.998;4.754;2022-09-02T02:32:41;16.90;99.90
33715;DHT22;20043;50.998;4.754;2022-09-02T02:35:08;17.00;99.90
33715;DHT22;20043;50.998;4.754;2022-09-02T02:37:35;17.10;99.90
33715;DHT22;20043;50.998;4.754;2022-09-02T02:40:03;17.20;99.90
33715;DHT22;20043;50.998;4.754;2022-09-02T02:42:29;17.20;99.90
33715;DHT22;20043;50.998;4.754;2022-09-02T02:44:55;17.20;99.90
33715;DHT22;20043;50.998;4.754;2022-09-02T02:47:20;17.20;99.90
33715;DHT22;20043;50.998;4.754;2022-09-02T02:49:46;17.30;99.90
33715;DHT22;20043;50.998;4.754;2022-09-02T02:52:12;17.30;99.90
33715;DHT22;20043;50.998;4.754;2022-09-02T02:54:39;17.40;99.90
33715;DHT22;20043;50.998;4.754;2022-09-02T02:57:06;17.40;99.90
33715;DHT22;20043;50.998;4.754;2022-09-02T02:59:32;17.40;99.90
33715;DHT22;20043;50.998;4.754;2022-09-02T03:01:58;17.40;99.90
33715;DHT22;20043;50.998;4.754;2022-09-02T03:04:24;17.40;99.90
33715;DHT22;20043;50.998;4.754;2022-09-02T03:06:49;17.50;99.90
33715;DHT22;20043;50.998;4.754;2022-09-02T03:09:16;17.50;99.90
33715;DHT22;20043;50.998;4.754;2022-09-02T03:11:42;17.50;99.90
33715;DHT22;20043;50.998;4.754;2022-09-02T03:14:07;17.60;99.90
33715;DHT22;20043;50.998;4.754;2022-09-02T03:16:34;17.60;99.90
33715;DHT22;20043;50.998;4.754;2022-09-02T03:19:00;17.70;99.90
33715;DHT22;20043;50.998;4.754;2022-09-02T03:21:26;17.70;99.90
33715;DHT22;20043;50.998;4.754;2022-09-02T03:23:51;17.80;99.90
33715;DHT22;20043;50.998;4.754;2022-09-02T03:26:19;17.70;99.90
33715;DHT22;20043;50.998;4.754;2022-09-02T03:28:45;17.60;99.90
33715;DHT22;20043;50.998;4.754;2022-09-02T03:31:18;17.60;99.90
33715;DHT22;20043;50.998;4.754;2022-09-02T03:33:44;17.60;99.90
33715;DHT22;20043;50.998;4.754;2022-09-02T03:36:21;17.60;99.90
33715;DHT22;20043;50.998;4.754;2022-09-02T03:38:47;17.60;99.90
33715;DHT22;20043;50.998;4.754;2022-09-02T03:41:13;17.60;99.90
33715;DHT22;20043;50.998;4.754;2022-09-02T03:43:39;17.60;99.90
33715;DHT22;20043;50.998;4.754;2022-09-02T03:46:05;17.50;99.90
33715;DHT22;20043;50.998;4.754;2022-09-02T03:48:30;17.60;99.90
33715;DHT22;20043;50.998;4.754;2022-09-02T03:50:56;17.70;99.90
33715;DHT22;20043;50.998;4.754;2022-09-02T03:53:22;17.60;99.90
33715;DHT22;20043;50.998;4.754;2022-09-02T03:55:49;17.70;99.90
33715;DHT22;20043;50.998;4.754;2022-09-02T03:58:14;17.80;99.90
33715;DHT22;20043;50.998;4.754;2022-09-02T04:00:40;17.90;99.90
33715;DHT22;20043;50.998;4.754;2022-09-02T04:03:06;17.90;99.90
33715;DHT22;20043;50.998;4.754;2022-09-02T04:05:32;17.80;99.90
33715;DHT22;20043;50.998;4.754;2022-09-02T04:07:58;17.90;99.90
33715;DHT22;20043;50.998;4.754;2022-09-02T04:10:25;17.90;99.90
33715;DHT22;20043;50.998;4.754;2022-09-02T04:12:51;17.90;99.90
33715;DHT22;20043;50.998;4.754;2022-09-02T04:15:17;17.80;99.90
33715;DHT22;20043;50.998;4.754;2022-09-02T04:17:44;17.80;99.90
33715;DHT22;20043;50.998;4.754;2022-09-02T04:20:11;17.90;99.90
33715;DHT22;20043;50.998;4.754;2022-09-02T04:22:37;18.00;99.90
33715;DHT22;20043;50.998;4.754;2022-09-02T04:25:04;18.00;99.90
33715;DHT22;20043;50.998;4.754;2022-09-02T04:27:30;18.10;99.90
33715;DHT22;20043;50.998;4.754;2022-09-02T04:29:56;18.10;99.90
33715;DHT22;20043;50.998;4.754;2022-09-02T04:32:22;18.10;99.90
33715;DHT22;20043;50.998;4.754;2022-09-02T04:34:48;18.20;99.90
33715;DHT22;20043;50.998;4.754;2022-09-02T04:37:14;18.20;99.90
33715;DHT22;20043;50.998;4.754;2022-09-02T04:39:40;18.30;99.90
33715;DHT22;20043;50.998;4.754;2022-09-02T04:42:05;18.20;99.90
33715;DHT22;20043;50.998;4.754;2022-09-02T04:44:32;18.30;99.90
33715;DHT22;20043;50.998;4.754;2022-09-02T04:46:58;18.20;99.90
33715;DHT22;20043;50.998;4.754;2022-09-02T04:49:23;18.20;99.90
33715;DHT22;20043;50.998;4.754;2022-09-02T04:51:49;18.00;99.90
33715;DHT22;20043;50.998;4.754;2022-09-02T04:54:15;18.00;99.90
33715;DHT22;20043;50.998;4.754;2022-09-02T04:56:41;18.00;99.90
33715;DHT22;20043;50.998;4.754;2022-09-02T04:59:07;18.00;99.90
33715;DHT22;20043;50.998;4.754;2022-09-02T05:01:34;18.10;99.90
33715;DHT22;20043;50.998;4.754;2022-09-02T05:04:03;18.20;99.90
33715;DHT22;20043;50.998;4.754;2022-09-02T05:06:29;18.20;99.90
33715;DHT22;20043;50.998;4.754;2022-09-02T05:08:56;18.20;99.90
33715;DHT22;20043;50.998;4.754;2022-09-02T05:11:24;18.20;99.90
33715;DHT22;20043;50.998;4.754;2022-09-02T05:13:54;18.20;99.90
33715;DHT22;20043;50.998;4.754;2022-09-02T05:16:24;18.20;99.90
33715;DHT22;20043;50.998;4.754;2022-09-02T05:18:51;18.20;99.90
33715;DHT22;20043;50.998;4.754;2022-09-02T05:21:17;18.10;99.90
33715;DHT22;20043;50.998;4.754;2022-09-02T05:23:43;18.20;99.90
33715;DHT22;20043;50.998;4.754;2022-09-02T05:26:10;18.20;99.90
33715;DHT22;20043;50.998;4.754;2022-09-02T05:28:38;18.30;99.90
33715;DHT22;20043;50.998;4.754;2022-09-02T05:31:09;18.30;99.90
33715;DHT22;20043;50.998;4.754;2022-09-02T05:33:36;18.30;99.90
33715;DHT22;20043;50.998;4.754;2022-09-02T05:36:04;18.20;99.90
33715;DHT22;20043;50.998;4.754;2022-09-02T05:38:30;18.20;99.90
33715;DHT22;20043;50.998;4.754;2022-09-02T05:40:56;18.20;99.90
33715;DHT22;20043;50.998;4.754;2022-09-02T05:43:24;18.40;99.90
33715;DHT22;20043;50.998;4.754;2022-09-02T05:45:49;18.30;99.90
33715;DHT22;20043;50.998;4.754;2022-09-02T05:48:15;18.40;99.90
33715;DHT22;20043;50.998;4.754;2022-09-02T05:51:03;18.40;99.90
33715;DHT22;20043;50.998;4.754;2022-09-02T05:53:31;18.40;99.90
33715;DHT22;20043;50.998;4.754;2022-09-02T05:55:57;18.50;99.90
33715;DHT22;20043;50.998;4.754;2022-09-02T05:58:23;18.40;99.90
33715;DHT22;20043;50.998;4.754;2022-09-02T06:00:49;18.40;99.90
33715;DHT22;20043;50.998;4.754;2022-09-02T06:03:14;18.30;99.90
33715;DHT22;20043;50.998;4.754;2022-09-02T06:05:53;18.30;99.90
33715;DHT22;20043;50.998;4.754;2022-09-02T06:08:19;18.30;99.90
33715;DHT22;20043;50.998;4.754;2022-09-02T06:10:44;18.50;99.90
33715;DHT22;20043;50.998;4.754;2022-09-02T06:13:10;18.70;99.90
33715;DHT22;20043;50.998;4.754;2022-09-02T06:15:43;18.90;99.90
33715;DHT22;20043;50.998;4.754;2022-09-02T06:18:09;19.00;99.90
33715;DHT22;20043;50.998;4.754;2022-09-02T06:20:43;19.10;99.90
33715;DHT22;20043;50.998;4.754;2022-09-02T06:23:09;19.10;99.90
33715;DHT22;20043;50.998;4.754;2022-09-02T06:25:38;19.10;99.90
33715;DHT22;20043;50.998;4.754;2022-09-02T06:28:05;18.90;99.90
33715;DHT22;20043;50.998;4.754;2022-09-02T06:30:31;18.70;99.90
33715;DHT22;20043;50.998;4.754;2022-09-02T06:32:57;18.90;99.90
33715;DHT22;20043;50.998;4.754;2022-09-02T06:35:23;18.80;99.90
33715;DHT22;20043;50.998;4.754;2022-09-02T06:37:48;18.90;99.90
33715;DHT22;20043;50.998;4.754;2022-09-02T06:40:14;19.20;99.90
33715;DHT22;20043;50.998;4.754;2022-09-02T06:42:40;19.40;99.90
33715;DHT22;20043;50.998;4.754;2022-09-02T06:45:07;19.70;99.90
33715;DHT22;20043;50.998;4.754;2022-09-02T06:47:33;19.90;99.90
33715;DHT22;20043;50.998;4.754;2022-09-02T06:49:59;20.10;99.90
33715;DHT22;20043;50.998;4.754;2022-09-02T06:52:25;20.20;99.90
33715;DHT22;20043;50.998;4.754;2022-09-02T06:54:50;20.20;99.90
33715;DHT22;20043;50.998;4.754;2022-09-02T06:57:17;20.50;99.90
33715;DHT22;20043;50.998;4.754;2022-09-02T06:59:42;20.70;99.90
33715;DHT22;20043;50.998;4.754;2022-09-02T07:02:08;20.70;99.90
33715;DHT22;20043;50.998;4.754;2022-09-02T07:04:35;20.80;99.90
33715;DHT22;20043;50.998;4.754;2022-09-02T07:07:19;21.00;99.90
33715;DHT22;20043;50.998;4.754;2022-09-02T07:09:45;20.90;99.90
33715;DHT22;20043;50.998;4.754;2022-09-02T07:12:10;21.00;99.90
33715;DHT22;20043;50.998;4.754;2022-09-02T07:14:39;21.20;99.90
33715;DHT22;20043;50.998;4.754;2022-09-02T07:17:06;21.30;99.90
33715;DHT22;20043;50.998;4.754;2022-09-02T07:19:31;21.40;99.90
33715;DHT22;20043;50.998;4.754;2022-09-02T07:21:57;21.40;99.90
33715;DHT22;20043;50.998;4.754;2022-09-02T07:24:23;21.40;99.90
33715;DHT22;20043;50.998;4.754;2022-09-02T07:26:49;21.40;99.90
33715;DHT22;20043;50.998;4.754;2022-09-02T07:29:15;21.20;99.90
33715;DHT22;20043;50.998;4.754;2022-09-02T07:31:43;21.20;99.90
33715;DHT22;20043;50.998;4.754;2022-09-02T07:34:09;21.20;99.90
33715;DHT22;20043;50.998;4.754;2022-09-02T07:36:37;21.20;99.90
33715;DHT22;20043;50.998;4.754;2022-09-02T07:39:05;21.20;99.90
33715;DHT22;20043;50.998;4.754;2022-09-02T07:41:32;21.10;99.90
33715;DHT22;20043;50.998;4.754;2022-09-02T07:43:58;21.00;99.90
33715;DHT22;20043;50.998;4.754;2022-09-02T07:46:24;21.00;99.90
33715;DHT22;20043;50.998;4.754;2022-09-02T07:48:49;21.00;99.90
33715;DHT22;20043;50.998;4.754;2022-09-02T07:51:17;21.10;99.90
33715;DHT22;20043;50.998;4.754;2022-09-02T07:53:43;21.40;99.90
33715;DHT22;20043;50.998;4.754;2022-09-02T07:56:10;21.70;99.90
33715;DHT22;20043;50.998;4.754;2022-09-02T07:58:36;22.10;99.90
33715;DHT22;20043;50.998;4.754;2022-09-02T08:01:02;22.50;99.90
33715;DHT22;20043;50.998;4.754;2022-09-02T08:03:27;22.80;99.90
33715;DHT22;20043;50.998;4.754;2022-09-02T08:05:53;23.00;99.90
33715;DHT22;20043;50.998;4.754;2022-09-02T08:08:19;22.90;99.90
33715;DHT22;20043;50.998;4.754;2022-09-02T08:10:48;23.10;99.90
33715;DHT22;20043;50.998;4.754;2022-09-02T08:13:14;23.20;99.90
33715;DHT22;20043;50.998;4.754;2022-09-02T08:15:40;23.10;99.90
33715;DHT22;20043;50.998;4.754;2022-09-02T08:18:06;23.20;99.90
33715;DHT22;20043;50.998;4.754;2022-09-02T08:20:31;23.10;99.90
33715;DHT22;20043;50.998;4.754;2022-09-02T08:22:57;23.30;99.90
33715;DHT22;20043;50.998;4.754;2022-09-02T08:25:23;23.60;99.90
33715;DHT22;20043;50.998;4.754;2022-09-02T08:27:49;23.80;99.50
33715;DHT22;20043;50.998;4.754;2022-09-02T08:30:15;23.70;99.70
33715;DHT22;20043;50.998;4.754;2022-09-02T08:32:41;23.70;99.90
33715;DHT22;20043;50.998;4.754;2022-09-02T08:35:08;23.90;99.90
33715;DHT22;20043;50.998;4.754;2022-09-02T08:37:34;24.00;99.70
33715;DHT22;20043;50.998;4.754;2022-09-02T08:40:02;23.60;99.60
33715;DHT22;20043;50.998;4.754;2022-09-02T08:42:33;23.50;99.40
33715;DHT22;20043;50.998;4.754;2022-09-02T08:45:17;23.60;99.90
33715;DHT22;20043;50.998;4.754;2022-09-02T08:47:49;23.90;99.30
33715;DHT22;20043;50.998;4.754;2022-09-02T08:50:18;24.10;99.20
33715;DHT22;20043;50.998;4.754;2022-09-02T08:55:43;24.20;98.80
33715;DHT22;20043;50.998;4.754;2022-09-02T08:58:16;24.00;99.90
33715;DHT22;20043;50.998;4.754;2022-09-02T09:00:42;24.30;99.50
33715;DHT22;20043;50.998;4.754;2022-09-02T09:03:36;24.20;99.60
33715;DHT22;20043;50.998;4.754;2022-09-02T09:06:08;24.00;99.20
33715;DHT22;20043;50.998;4.754;2022-09-02T09:08:50;24.20;98.80
33715;DHT22;20043;50.998;4.754;2022-09-02T09:11:40;24.70;99.20
33715;DHT22;20043;50.998;4.754;2022-09-02T09:22:28;25.20;97.70
33715;DHT22;20043;50.998;4.754;2022-09-02T09:24:56;25.50;97.80
33715;DHT22;20043;50.998;4.754;2022-09-02T09:27:22;25.50;97.10
33715;DHT22;20043;50.998;4.754;2022-09-02T09:29:50;25.60;97.00
33715;DHT22;20043;50.998;4.754;2022-09-02T09:32:26;25.70;96.60
33715;DHT22;20043;50.998;4.754;2022-09-02T09:37:33;26.20;95.80
33715;DHT22;20043;50.998;4.754;2022-09-02T09:40:00;26.40;95.70
33715;DHT22;20043;50.998;4.754;2022-09-02T09:42:33;26.10;95.10
33715;DHT22;20043;50.998;4.754;2022-09-02T09:44:59;26.40;95.40
33715;DHT22;20043;50.998;4.754;2022-09-02T09:47:39;26.50;94.30
33715;DHT22;20043;50.998;4.754;2022-09-02T09:50:12;26.40;94.00
33715;DHT22;20043;50.998;4.754;2022-09-02T09:52:40;26.20;94.70
33715;DHT22;20043;50.998;4.754;2022-09-02T09:55:18;26.30;94.30
33715;DHT22;20043;50.998;4.754;2022-09-02T09:57:46;26.40;94.10
33715;DHT22;20043;50.998;4.754;2022-09-02T10:02:55;26.70;93.80
33715;DHT22;20043;50.998;4.754;2022-09-02T10:08:00;26.70;92.60
33715;DHT22;20043;50.998;4.754;2022-09-02T10:10:28;26.50;93.40
33715;DHT22;20043;50.998;4.754;2022-09-02T10:12:58;26.80;92.60
33715;DHT22;20043;50.998;4.754;2022-09-02T10:15:46;27.10;91.60
33715;DHT22;20043;50.998;4.754;2022-09-02T10:21:18;27.40;91.30
33715;DHT22;20043;50.998;4.754;2022-09-02T10:26:44;27.10;87.60
33715;DHT22;20043;50.998;4.754;2022-09-02T10:34:49;27.10;88.70
33715;DHT22;20043;50.998;4.754;2022-09-02T10:37:30;27.10;86.60
33715;DHT22;20043;50.998;4.754;2022-09-02T10:40:12;27.10;89.10
33715;DHT22;20043;50.998;4.754;2022-09-02T10:43:17;27.40;90.10
33715;DHT22;20043;50.998;4.754;2022-09-02T10:50:46;28.00;85.30
33715;DHT22;20043;50.998;4.754;2022-09-02T10:56:23;27.80;82.50
33715;DHT22;20043;50.998;4.754;2022-09-02T10:59:07;28.10;83.60
33715;DHT22;20043;50.998;4.754;2022-09-02T11:01:51;28.00;81.00
33715;DHT22;20043;50.998;4.754;2022-09-02T11:06:46;27.90;80.40
33715;DHT22;20043;50.998;4.754;2022-09-02T11:09:25;28.00;80.40
33715;DHT22;20043;50.998;4.754;2022-09-02T11:14:44;28.30;80.40
33715;DHT22;20043;50.998;4.754;2022-09-02T11:20:20;28.50;79.60
33715;DHT22;20043;50.998;4.754;2022-09-02T11:23:05;28.30;79.10
33715;DHT22;20043;50.998;4.754;2022-09-02T11:25:38;28.20;79.70
33715;DHT22;20043;50.998;4.754;2022-09-02T11:28:28;28.30;78.40
33715;DHT22;20043;50.998;4.754;2022-09-02T11:31:06;28.40;77.40
33715;DHT22;20043;50.998;4.754;2022-09-02T11:36:06;29.00;77.80
33715;DHT22;20043;50.998;4.754;2022-09-02T11:38:53;28.90;78.50
33715;DHT22;20043;50.998;4.754;2022-09-02T11:41:27;29.00;74.40
33715;DHT22;20043;50.998;4.754;2022-09-02T11:52:00;29.10;76.20
33715;DHT22;20043;50.998;4.754;2022-09-02T11:54:33;29.20;77.50
33715;DHT22;20043;50.998;4.754;2022-09-02T11:57:01;29.30;76.30
33715;DHT22;20043;50.998;4.754;2022-09-02T12:13:36;30.10;73.60
33715;DHT22;20043;50.998;4.754;2022-09-02T12:18:38;29.90;72.10
33715;DHT22;20043;50.998;4.754;2022-09-02T12:21:16;29.70;72.30
33715;DHT22;20043;50.998;4.754;2022-09-02T12:29:32;29.80;71.40
33715;DHT22;20043;50.998;4.754;2022-09-02T12:31:56;29.70;70.60
33715;DHT22;20043;50.998;4.754;2022-09-02T12:36:52;29.10;73.50
33715;DHT22;20043;50.998;4.754;2022-09-02T12:41:57;29.80;70.50
33715;DHT22;20043;50.998;4.754;2022-09-02T12:50:24;30.00;68.70
33715;DHT22;20043;50.998;4.754;2022-09-02T12:52:51;30.10;69.50
33715;DHT22;20043;50.998;4.754;2022-09-02T12:55:27;30.20;68.90
33715;DHT22;20043;50.998;4.754;2022-09-02T12:58:05;30.30;71.10
33715;DHT22;20043;50.998;4.754;2022-09-02T13:03:40;29.90;72.30
33715;DHT22;20043;50.998;4.754;2022-09-02T13:06:24;30.00;69.70
33715;DHT22;20043;50.998;4.754;2022-09-02T13:12:13;29.80;70.10
33715;DHT22;20043;50.998;4.754;2022-09-02T13:15:00;29.40;71.40
33715;DHT22;20043;50.998;4.754;2022-09-02T13:20:46;29.10;72.00
33715;DHT22;20043;50.998;4.754;2022-09-02T13:28:59;29.60;71.10
33715;DHT22;20043;50.998;4.754;2022-09-02T13:31:30;29.90;69.20
33715;DHT22;20043;50.998;4.754;2022-09-02T13:34:04;30.00;68.70
33715;DHT22;20043;50.998;4.754;2022-09-02T13:36:35;29.90;71.40
33715;DHT22;20043;50.998;4.754;2022-09-02T13:39:12;29.90;69.60
33715;DHT22;20043;50.998;4.754;2022-09-02T13:41:38;30.00;71.40
33715;DHT22;20043;50.998;4.754;2022-09-02T13:44:08;30.20;70.30
33715;DHT22;20043;50.998;4.754;2022-09-02T13:47:01;30.40;68.40
33715;DHT22;20043;50.998;4.754;2022-09-02T13:49:34;30.70;69.80
33715;DHT22;20043;50.998;4.754;2022-09-02T13:52:01;30.40;66.30
33715;DHT22;20043;50.998;4.754;2022-09-02T13:54:32;30.20;68.40
33715;DHT22;20043;50.998;4.754;2022-09-02T13:57:01;30.00;68.30
33715;DHT22;20043;50.998;4.754;2022-09-02T13:59:47;30.20;69.10
33715;DHT22;20043;50.998;4.754;2022-09-02T14:05:03;30.50;70.40
33715;DHT22;20043;50.998;4.754;2022-09-02T14:07:51;30.70;67.60
33715;DHT22;20043;50.998;4.754;2022-09-02T14:10:19;30.50;68.00
33715;DHT22;20043;50.998;4.754;2022-09-02T14:12:47;30.20;67.70
33715;DHT22;20043;50.998;4.754;2022-09-02T14:15:14;30.20;68.50
33715;DHT22;20043;50.998;4.754;2022-09-02T14:17:40;30.20;67.70
33715;DHT22;20043;50.998;4.754;2022-09-02T14:20:19;30.20;69.10
33715;DHT22;20043;50.998;4.754;2022-09-02T14:22:56;30.00;68.10
33715;DHT22;20043;50.998;4.754;2022-09-02T14:25:24;29.90;66.90
33715;DHT22;20043;50.998;4.754;2022-09-02T14:27:55;29.90;68.40
33715;DHT22;20043;50.998;4.754;2022-09-02T14:30:36;30.10;64.90
33715;DHT22;20043;50.998;4.754;2022-09-02T14:33:19;30.30;65.70
33715;DHT22;20043;50.998;4.754;2022-09-02T14:43:46;30.50;67.80
33715;DHT22;20043;50.998;4.754;2022-09-02T14:46:35;30.60;68.80
33715;DHT22;20043;50.998;4.754;2022-09-02T14:49:07;30.60;67.60
33715;DHT22;20043;50.998;4.754;2022-09-02T14:51:44;30.50;68.70
33715;DHT22;20043;50.998;4.754;2022-09-02T14:54:11;30.60;64.60
33715;DHT22;20043;50.998;4.754;2022-09-02T14:56:50;30.30;64.70
33715;DHT22;20043;50.998;4.754;2022-09-02T14:59:18;30.40;64.30
33715;DHT22;20043;50.998;4.754;2022-09-02T15:01:51;30.30;66.20
33715;DHT22;20043;50.998;4.754;2022-09-02T15:04:19;30.50;66.70
33715;DHT22;20043;50.998;4.754;2022-09-02T15:06:46;30.80;65.70
33715;DHT22;20043;50.998;4.754;2022-09-02T15:09:13;31.00;65.10
33715;DHT22;20043;50.998;4.754;2022-09-02T15:11:41;30.80;66.80
33715;DHT22;20043;50.998;4.754;2022-09-02T15:14:08;30.60;64.50
33715;DHT22;20043;50.998;4.754;2022-09-02T15:16:33;30.50;64.30
33715;DHT22;20043;50.998;4.754;2022-09-02T15:18:59;30.60;65.40
33715;DHT22;20043;50.998;4.754;2022-09-02T15:21:25;30.60;66.70
33715;DHT22;20043;50.998;4.754;2022-09-02T15:23:51;30.40;64.30
33715;DHT22;20043;50.998;4.754;2022-09-02T15:26:16;30.10;63.70
33715;DHT22;20043;50.998;4.754;2022-09-02T15:28:42;30.10;66.20
33715;DHT22;20043;50.998;4.754;2022-09-02T15:31:09;30.20;65.60
33715;DHT22;20043;50.998;4.754;2022-09-02T15:33:35;30.10;67.10
33715;DHT22;20043;50.998;4.754;2022-09-02T15:36:10;29.80;66.80
33715;DHT22;20043;50.998;4.754;2022-09-02T15:38:37;29.50;66.80
33715;DHT22;20043;50.998;4.754;2022-09-02T15:41:19;29.00;69.10
33715;DHT22;20043;50.998;4.754;2022-09-02T15:43:46;28.80;69.90
33715;DHT22;20043;50.998;4.754;2022-09-02T15:46:21;28.50;69.30
33715;DHT22;20043;50.998;4.754;2022-09-02T15:48:48;28.40;68.90
33715;DHT22;20043;50.998;4.754;2022-09-02T15:51:16;28.40;69.40
33715;DHT22;20043;50.998;4.754;2022-09-02T15:53:42;28.50;69.30
33715;DHT22;20043;50.998;4.754;2022-09-02T15:56:19;28.60;69.40
33715;DHT22;20043;50.998;4.754;2022-09-02T15:58:45;28.40;69.10
33715;DHT22;20043;50.998;4.754;2022-09-02T16:01:11;28.30;68.90
33715;DHT22;20043;50.998;4.754;2022-09-02T16:03:37;28.40;69.10
33715;DHT22;20043;50.998;4.754;2022-09-02T16:06:05;28.30;69.90
33715;DHT22;20043;50.998;4.754;2022-09-02T16:08:32;28.50;69.90
33715;DHT22;20043;50.998;4.754;2022-09-02T16:11:02;28.50;70.10
33715;DHT22;20043;50.998;4.754;2022-09-02T16:13:28;28.40;71.20
33715;DHT22;20043;50.998;4.754;2022-09-02T16:16:05;28.00;70.80
33715;DHT22;20043;50.998;4.754;2022-09-02T16:18:32;28.10;71.90
33715;DHT22;20043;50.998;4.754;2022-09-02T16:20:58;28.00;70.60
33715;DHT22;20043;50.998;4.754;2022-09-02T16:23:24;27.80;71.60
33715;DHT22;20043;50.998;4.754;2022-09-02T16:28:41;27.80;71.40
33715;DHT22;20043;50.998;4.754;2022-09-02T16:31:09;27.80;72.00
33715;DHT22;20043;50.998;4.754;2022-09-02T16:33:34;27.70;71.50
33715;DHT22;20043;50.998;4.754;2022-09-02T16:36:01;27.60;71.50
33715;DHT22;20043;50.998;4.754;2022-09-02T16:38:27;27.40;71.90
33715;DHT22;20043;50.998;4.754;2022-09-02T16:40:55;27.30;71.90
33715;DHT22;20043;50.998;4.754;2022-09-02T16:43:21;27.20;72.60
33715;DHT22;20043;50.998;4.754;2022-09-02T16:45:48;27.20;72.70
33715;DHT22;20043;50.998;4.754;2022-09-02T16:48:18;27.00;72.40
33715;DHT22;20043;50.998;4.754;2022-09-02T16:50:45;27.10;72.50
33715;DHT22;20043;50.998;4.754;2022-09-02T16:53:10;27.00;73.20
33715;DHT22;20043;50.998;4.754;2022-09-02T16:55:43;27.00;73.60
33715;DHT22;20043;50.998;4.754;2022-09-02T16:58:10;27.20;73.50
33715;DHT22;20043;50.998;4.754;2022-09-02T17:00:41;27.10;72.10
33715;DHT22;20043;50.998;4.754;2022-09-02T17:03:10;27.20;72.80
33715;DHT22;20043;50.998;4.754;2022-09-02T17:05:37;27.00;72.50
33715;DHT22;20043;50.998;4.754;2022-09-02T17:08:04;26.90;73.30
33715;DHT22;20043;50.998;4.754;2022-09-02T17:10:32;26.80;73.00
33715;DHT22;20043;50.998;4.754;2022-09-02T17:12:58;26.70;72.90
33715;DHT22;20043;50.998;4.754;2022-09-02T17:15:25;26.80;73.10
33715;DHT22;20043;50.998;4.754;2022-09-02T17:17:51;26.80;73.30
33715;DHT22;20043;50.998;4.754;2022-09-02T17:20:17;26.60;73.70
33715;DHT22;20043;50.998;4.754;2022-09-02T17:22:43;26.60;73.60
33715;DHT22;20043;50.998;4.754;2022-09-02T17:25:09;26.50;73.90
33715;DHT22;20043;50.998;4.754;2022-09-02T17:27:35;26.50;75.00
33715;DHT22;20043;50.998;4.754;2022-09-02T17:30:03;26.50;75.10
33715;DHT22;20043;50.998;4.754;2022-09-02T17:32:29;26.40;75.20
33715;DHT22;20043;50.998;4.754;2022-09-02T17:34:54;26.40;74.30
33715;DHT22;20043;50.998;4.754;2022-09-02T17:37:20;26.30;74.60
33715;DHT22;20043;50.998;4.754;2022-09-02T17:39:47;26.20;74.90
33715;DHT22;20043;50.998;4.754;2022-09-02T17:42:13;26.20;75.40
33715;DHT22;20043;50.998;4.754;2022-09-02T17:44:39;26.20;76.00